Mozhga, Russia
Current Conditions -  °F | °C
As of 4:00 PM on Thursday 18 Dec 2014 (Local Time) from UWKE Reporting Station
Blowing Snow Blowing Snow  
Wind Chill: 16°   Ceiling: Unl
Heat Index: 30°   Visibility: 6mi
Dew Point: 23°   Wind: 27mph
Humidity: 75%   Direction: 190°S
Pressure: 29.94"   Gusts: 34mph
Location:  56.45°N, 52.19°E
Report Text: UWKE 181200Z 19012G15MPS 9999 DRSN FEW020 M01/M05 Q1014 NOSIGRMK QFE743/0991 21090070
Loading
Personal Weather Stations






























Interactive Weather Map New forecast layout! Learn more

10-Day Weather Forecast

Advertisements
Track Severe Weather on mobile